Time;durP1;ratioP1;P1;durP2;ratioP2;P2;SDS_P1;SDS_P2;PMS_P1;PMS_P2;Temp;Humidity;BMP_temperature;BMP_pressure;BME280_temperature;BME280_humidity;BME280_pressure;Samples;Min_cycle;Max_cycle;Signal;HPM_P1;HPM_P2
2023/02/28 00:01:26;;;;;;;5.55;2.65;;;-3.40;99.90;;;;;;5028036;28;20041;-74
2023/02/28 00:03:52;;;;;;;5.25;2.58;;;-3.50;99.90;;;;;;5022453;28;20029;-75
2023/02/28 00:06:18;;;;;;;6.80;2.58;;;-3.60;99.90;;;;;;5014219;28;20083;-74
2023/02/28 00:08:43;;;;;;;6.10;2.60;;;-3.60;99.90;;;;;;5018774;28;20480;-75
2023/02/28 00:11:12;;;;;;;8.23;2.90;;;-3.60;99.90;;;;;;5020745;28;20040;-74
2023/02/28 00:13:42;;;;;;;6.90;3.10;;;-3.60;99.90;;;;;;5013080;28;23207;-74
2023/02/28 00:16:13;;;;;;;5.03;2.58;;;-3.70;99.90;;;;;;5029380;28;20287;-74
2023/02/28 00:18:39;;;;;;;7.13;3.13;;;-3.70;99.90;;;;;;5024567;28;20033;-74
2023/02/28 00:21:06;;;;;;;5.57;2.72;;;-3.70;99.90;;;;;;5024466;28;20033;-72
2023/02/28 00:23:31;;;;;;;6.57;2.90;;;-3.70;99.90;;;;;;5030530;28;20025;-74
2023/02/28 00:25:57;;;;;;;4.78;2.53;;;-3.70;99.90;;;;;;5014726;28;20033;-73
2023/02/28 00:28:23;;;;;;;8.23;2.50;;;-3.80;99.90;;;;;;5022570;28;20037;-74
2023/02/28 00:30:48;;;;;;;5.70;2.85;;;-3.80;99.90;;;;;;5013896;28;20482;-74
2023/02/28 00:33:14;;;;;;;3.55;2.42;;;-3.50;99.90;;;;;;5035720;28;20026;-74
2023/02/28 00:35:40;;;;;;;5.80;2.50;;;-3.50;99.90;;;;;;5041664;28;20036;-74
2023/02/28 00:38:05;;;;;;;6.65;3.08;;;-3.50;99.90;;;;;;5031180;28;20414;-73
2023/02/28 00:40:31;;;;;;;5.68;2.47;;;-3.70;99.90;;;;;;5014573;28;20408;-74
2023/02/28 00:42:57;;;;;;;6.07;2.65;;;-3.70;99.90;;;;;;5017227;28;20026;-72
2023/02/28 00:45:23;;;;;;;4.30;2.92;;;-3.80;99.90;;;;;;5022692;28;20387;-75
2023/02/28 00:47:49;;;;;;;6.68;2.75;;;-3.90;99.90;;;;;;5017677;28;20029;-75
2023/02/28 00:50:18;;;;;;;7.75;3.47;;;-3.90;99.90;;;;;;5029362;28;20021;-72
2023/02/28 00:52:43;;;;;;;6.55;2.50;;;-3.90;99.90;;;;;;5021878;28;20398;-74
2023/02/28 00:55:09;;;;;;;5.43;2.47;;;-4.00;99.90;;;;;;5023064;28;20108;-75
2023/02/28 00:57:35;;;;;;;4.55;2.78;;;-4.00;99.90;;;;;;5020507;28;20475;-74
2023/02/28 01:00:01;;;;;;;4.65;2.63;;;-4.10;99.90;;;;;;5026179;28;20375;-73
2023/02/28 01:02:27;;;;;;;7.85;2.88;;;-4.10;99.90;;;;;;5015978;28;20063;-74
2023/02/28 01:04:52;;;;;;;7.30;2.70;;;-4.10;99.90;;;;;;5023445;28;20032;-74
2023/02/28 01:07:18;;;;;;;6.05;2.47;;;-4.10;99.90;;;;;;5018885;28;20695;-74
2023/02/28 01:09:43;;;;;;;7.60;3.08;;;-4.20;99.90;;;;;;5022595;28;20115;-74
2023/02/28 01:12:09;;;;;;;5.40;2.28;;;-4.20;99.90;;;;;;5015988;28;20033;-74
2023/02/28 01:14:35;;;;;;;5.53;3.03;;;-4.20;99.90;;;;;;5027738;28;20100;-74
2023/02/28 01:17:01;;;;;;;4.10;2.63;;;-4.30;99.90;;;;;;5027251;28;20037;-72
2023/02/28 01:19:27;;;;;;;7.18;2.40;;;-4.30;99.90;;;;;;5030805;28;20036;-74
2023/02/28 01:21:52;;;;;;;3.85;2.38;;;-4.30;99.90;;;;;;5004155;28;20025;-72
2023/02/28 01:24:19;;;;;;;6.25;3.25;;;-4.30;99.90;;;;;;5021700;28;20840;-74
2023/02/28 01:26:44;;;;;;;4.75;2.58;;;-4.30;99.90;;;;;;5022665;28;20026;-74
2023/02/28 01:29:10;;;;;;;5.13;2.25;;;-4.30;99.90;;;;;;5020819;28;20438;-75
2023/02/28 01:31:36;;;;;;;4.13;2.35;;;-4.40;99.90;;;;;;5020573;28;20371;-73
2023/02/28 01:34:02;;;;;;;4.20;2.80;;;-4.40;99.90;;;;;;5016741;28;20036;-72
2023/02/28 01:36:27;;;;;;;4.72;2.70;;;-4.40;99.90;;;;;;5021393;28;20026;-73
2023/02/28 01:38:53;;;;;;;4.70;2.50;;;-4.40;99.90;;;;;;5021302;28;20159;-74
2023/02/28 01:41:28;;;;;;;5.63;2.53;;;-4.40;99.90;;;;;;5020122;28;20270;-74
2023/02/28 01:44:03;;;;;;;5.53;2.80;;;-4.40;99.90;;;;;;5021630;28;20044;-75
2023/02/28 01:46:30;;;;;;;4.90;2.70;;;-4.40;99.90;;;;;;5021052;28;20036;-74
2023/02/28 01:49:16;;;;;;;6.70;2.60;;;-4.40;99.90;;;;;;5022155;28;20051;-73
2023/02/28 01:51:50;;;;;;;4.32;2.78;;;-4.40;99.90;;;;;;5017121;28;20018;-73
2023/02/28 01:54:26;;;;;;;5.70;3.08;;;-4.30;99.90;;;;;;5019591;28;20025;-73
2023/02/28 01:56:58;;;;;;;4.32;2.78;;;-4.30;99.90;;;;;;5017637;28;20026;-74
2023/02/28 01:59:31;;;;;;;5.75;2.75;;;-4.30;99.90;;;;;;5018197;28;20029;-73
2023/02/28 02:01:56;;;;;;;6.90;2.65;;;-4.30;99.90;;;;;;5016128;28;20046;-72
2023/02/28 02:04:25;;;;;;;3.70;2.63;;;-4.30;99.90;;;;;;5017974;28;20115;-73
2023/02/28 02:06:52;;;;;;;6.82;2.70;;;-4.30;99.90;;;;;;5021056;28;20157;-73
2023/02/28 02:09:17;;;;;;;3.78;2.97;;;-4.40;99.90;;;;;;5014710;28;20032;-74
2023/02/28 02:11:44;;;;;;;6.50;3.10;;;-4.40;99.90;;;;;;5018295;28;20116;-74
2023/02/28 02:14:38;;;;;;;6.28;3.05;;;-4.40;99.90;;;;;;5016644;28;20081;-72
2023/02/28 02:17:41;;;;;;;10.25;3.30;;;-4.40;99.90;;;;;;4997989;28;20045;-74
2023/02/28 02:20:13;;;;;;;6.68;2.95;;;-4.40;99.90;;;;;;5014611;28;20026;-75
2023/02/28 02:23:00;;;;;;;6.15;3.50;;;-4.30;99.90;;;;;;5017589;28;20493;-74
2023/02/28 02:25:28;;;;;;;5.55;3.22;;;-4.30;99.90;;;;;;5020121;28;20026;-73
2023/02/28 02:28:19;;;;;;;6.40;3.80;;;-4.30;99.90;;;;;;5015118;28;20033;-74
2023/02/28 02:31:04;;;;;;;7.88;3.75;;;-4.20;99.90;;;;;;5014928;28;20155;-75
2023/02/28 02:34:06;;;;;;;6.38;3.20;;;-4.00;99.90;;;;;;5019151;28;20124;-73
2023/02/28 02:37:00;;;;;;;8.05;3.47;;;-3.90;99.90;;;;;;5001558;28;20056;-74
2023/02/28 02:39:37;;;;;;;5.93;3.45;;;-3.70;99.90;;;;;;5014133;28;20028;-75
2023/02/28 02:42:14;;;;;;;5.57;3.63;;;-3.50;99.90;;;;;;5016199;28;20037;-74
2023/02/28 02:44:48;;;;;;;5.90;3.53;;;-3.40;99.90;;;;;;5021321;28;20430;-75
2023/02/28 02:47:18;;;;;;;7.40;3.83;;;-3.30;99.90;;;;;;5014761;28;20084;-73
2023/02/28 02:49:51;;;;;;;7.88;3.67;;;-3.20;99.90;;;;;;5018950;28;20538;-74
2023/02/28 02:52:21;;;;;;;8.95;3.67;;;-3.20;99.90;;;;;;5000844;28;20018;-74
2023/02/28 02:54:48;;;;;;;;;;;-3.10;99.90;;;;;;5018686;28;20076;-74
2023/02/28 02:57:21;;;;;;;7.38;3.40;;;-2.90;99.90;;;;;;5019552;28;20349;-74
2023/02/28 02:59:49;;;;;;;7.15;3.50;;;-2.90;99.90;;;;;;5017821;28;20455;-74
2023/02/28 03:02:16;;;;;;;8.88;3.83;;;-2.70;99.90;;;;;;5019181;28;20046;-75
2023/02/28 03:05:00;;;;;;;5.97;4.00;;;-2.70;99.90;;;;;;5016807;28;20037;-74
2023/02/28 03:07:26;;;;;;;7.40;4.47;;;-2.70;99.90;;;;;;5018650;28;20032;-74
2023/02/28 03:09:56;;;;;;;10.07;4.10;;;-2.60;99.90;;;;;;5019330;28;20052;-74
2023/02/28 03:12:32;;;;;;;7.55;3.88;;;-2.60;99.90;;;;;;5015565;28;20033;-74
2023/02/28 03:15:03;;;;;;;7.10;3.80;;;-2.50;99.90;;;;;;4980612;28;1081331;-72
2023/02/28 03:18:08;;;;;;;5.88;3.45;;;-2.40;99.90;;;;;;5022676;28;20120;-73
2023/02/28 03:20:47;;;;;;;7.75;3.60;;;-2.40;99.90;;;;;;4977275;28;20116;-74
2023/02/28 03:23:21;;;;;;;6.97;3.60;;;-2.50;99.90;;;;;;5021418;28;20044;-74
2023/02/28 03:25:50;;;;;;;8.57;4.15;;;-2.30;99.90;;;;;;5017230;28;20116;-74
2023/02/28 03:28:27;;;;;;;9.18;4.55;;;-2.40;99.90;;;;;;5002248;28;20885;-73
2023/02/28 03:31:14;;;;;;;7.90;4.10;;;-2.40;99.90;;;;;;5020120;28;20097;-74
2023/02/28 03:33:54;;;;;;;8.05;4.10;;;-2.40;99.90;;;;;;5024661;28;20029;-74
2023/02/28 03:36:24;;;;;;;8.10;4.00;;;-2.30;99.90;;;;;;5026579;28;20025;-72
2023/02/28 03:38:53;;;;;;;;;;;-2.30;99.90;;;;;;5023568;28;20146;-72
2023/02/28 03:41:27;;;;;;;6.57;4.07;;;-2.30;99.90;;;;;;5021757;28;19907;-73
2023/02/28 03:44:00;;;;;;;8.57;4.35;;;-2.30;99.90;;;;;;5019135;28;20025;-73
2023/02/28 03:46:31;;;;;;;8.43;4.20;;;-2.30;99.90;;;;;;5021875;28;20105;-73
2023/02/28 03:49:20;;;;;;;7.07;4.32;;;-2.20;99.90;;;;;;5008220;28;20476;-71
2023/02/28 03:51:48;;;;;;;11.38;4.63;;;-2.20;99.90;;;;;;5020895;28;20028;-71
2023/02/28 03:54:19;;;;;;;8.13;3.83;;;-2.20;99.90;;;;;;5020158;28;20065;-73
2023/02/28 03:57:07;;;;;;;9.05;4.50;;;-2.30;99.90;;;;;;5022293;28;20364;-73
2023/02/28 03:59:58;;;;;;;7.97;4.57;;;-2.30;99.90;;;;;;5019149;28;20029;-73
2023/02/28 04:02:24;;;;;;;9.40;4.88;;;-2.20;99.90;;;;;;5018458;28;20117;-73
2023/02/28 04:04:50;;;;;;;8.85;4.28;;;-2.30;99.90;;;;;;5020676;28;20096;-73
2023/02/28 04:07:17;;;;;;;7.10;4.25;;;-2.30;99.90;;;;;;5003598;28;20042;-72
2023/02/28 04:09:43;;;;;;;8.13;4.72;;;-2.10;99.90;;;;;;5020710;28;20026;-72
2023/02/28 04:12:08;;;;;;;8.63;4.95;;;-2.00;99.90;;;;;;5019758;28;20093;-74
2023/02/28 04:14:34;;;;;;;6.10;4.28;;;-2.00;99.90;;;;;;5001644;28;20172;-73
2023/02/28 04:17:00;;;;;;;6.05;4.38;;;-1.90;99.90;;;;;;5024197;28;20596;-71
2023/02/28 04:19:25;;;;;;;7.72;4.78;;;-1.90;99.90;;;;;;5019018;28;20029;-73
2023/02/28 04:21:52;;;;;;;7.93;4.70;;;-2.00;99.90;;;;;;5023302;28;20047;-73
2023/02/28 04:24:23;;;;;;;11.70;4.75;;;-2.00;99.90;;;;;;5020010;28;20021;-73
2023/02/28 04:26:52;;;;;;;8.57;4.35;;;-2.00;99.90;;;;;;5022719;28;20033;-73
2023/02/28 04:29:26;;;;;;;10.02;4.97;;;-1.80;99.90;;;;;;5020760;28;20025;-73
2023/02/28 04:31:53;;;;;;;7.05;4.50;;;-1.80;99.90;;;;;;5022655;28;20025;-73
2023/02/28 04:34:20;;;;;;;7.43;4.43;;;-1.80;99.90;;;;;;5023024;28;20028;-74
2023/02/28 04:36:48;;;;;;;10.52;4.80;;;-1.80;99.90;;;;;;5023961;28;20052;-73
2023/02/28 04:39:15;;;;;;;7.18;4.10;;;-1.70;99.90;;;;;;5018051;28;20092;-73
2023/02/28 04:41:40;;;;;;;7.72;4.78;;;-1.70;99.90;;;;;;5022843;28;20026;-72
2023/02/28 04:44:06;;;;;;;8.63;4.90;;;-1.70;99.90;;;;;;5020936;28;20451;-75
2023/02/28 04:46:32;;;;;;;9.95;5.03;;;-1.80;99.90;;;;;;5023022;28;20033;-73
2023/02/28 04:48:58;;;;;;;7.85;4.78;;;-1.80;99.90;;;;;;5024026;28;20026;-72
2023/02/28 04:51:23;;;;;;;8.50;4.68;;;-1.80;99.90;;;;;;5021725;28;20029;-75
2023/02/28 04:53:49;;;;;;;8.32;5.03;;;-1.80;99.90;;;;;;5003920;28;20025;-74
2023/02/28 04:56:17;;;;;;;8.95;4.93;;;-1.80;99.90;;;;;;5021193;28;20033;-73
2023/02/28 04:58:42;;;;;;;11.55;4.88;;;-1.80;99.90;;;;;;5016564;28;20049;-72
2023/02/28 05:01:17;;;;;;;6.68;4.90;;;-1.70;99.90;;;;;;5020032;28;20105;-73
2023/02/28 05:03:43;;;;;;;8.55;4.68;;;-1.60;99.90;;;;;;5020573;28;20402;-73
2023/02/28 05:06:10;;;;;;;10.07;5.13;;;-1.60;99.90;;;;;;5020794;28;20108;-73
2023/02/28 05:08:36;;;;;;;10.20;5.28;;;-1.60;99.90;;;;;;5019974;28;20029;-74
2023/02/28 05:11:02;;;;;;;7.40;4.28;;;-1.70;99.90;;;;;;5022837;28;20022;-73
2023/02/28 05:13:28;;;;;;;11.50;5.80;;;-1.60;99.90;;;;;;5019837;28;20104;-73
2023/02/28 05:15:54;;;;;;;10.68;5.82;;;-1.70;99.90;;;;;;5022166;28;20451;-73
2023/02/28 05:18:20;;;;;;;6.93;5.28;;;-1.60;99.90;;;;;;5021480;28;20548;-74
2023/02/28 05:20:46;;;;;;;9.82;4.97;;;-1.60;99.90;;;;;;5018885;28;20045;-73
2023/02/28 05:23:12;;;;;;;9.02;4.93;;;-1.60;99.90;;;;;;5019161;28;20084;-73
2023/02/28 05:25:39;;;;;;;6.65;4.60;;;-1.60;99.90;;;;;;5020678;28;20119;-73
2023/02/28 05:28:04;;;;;;;12.50;5.30;;;-1.60;99.90;;;;;;5017030;28;20042;-73
2023/02/28 05:30:31;;;;;;;8.60;5.72;;;-1.60;99.90;;;;;;5021384;28;20060;-73
2023/02/28 05:32:58;;;;;;;9.40;5.18;;;-1.60;99.90;;;;;;5018793;28;20072;-72
2023/02/28 05:35:24;;;;;;;8.82;5.38;;;-1.60;99.90;;;;;;5002521;28;20459;-73
2023/02/28 05:37:50;;;;;;;8.63;5.35;;;-1.50;99.90;;;;;;5018450;28;20139;-73
2023/02/28 05:40:16;;;;;;;8.10;5.15;;;-1.60;99.90;;;;;;5013948;28;21000;-71
2023/02/28 05:42:42;;;;;;;10.48;5.75;;;-1.60;99.90;;;;;;5019337;28;20045;-72
2023/02/28 05:45:08;;;;;;;9.15;5.80;;;-1.60;99.90;;;;;;5018937;28;20045;-74
2023/02/28 05:47:34;;;;;;;11.32;5.80;;;-1.60;99.90;;;;;;5018649;28;20026;-74
2023/02/28 05:50:00;;;;;;;11.90;6.25;;;-1.50;99.90;;;;;;5018084;28;20191;-73
2023/02/28 05:52:26;;;;;;;15.57;5.90;;;-1.50;99.90;;;;;;5021103;28;20413;-74
2023/02/28 05:54:52;;;;;;;10.18;5.95;;;-1.50;99.90;;;;;;5016666;28;20034;-73
2023/02/28 05:57:18;;;;;;;11.07;6.18;;;-1.60;99.90;;;;;;5020352;28;20037;-73
2023/02/28 05:59:43;;;;;;;11.48;5.78;;;-1.60;99.90;;;;;;5000721;28;20033;-73
2023/02/28 06:02:13;;;;;;;11.15;6.25;;;-1.60;99.90;;;;;;5011885;28;20503;-73
2023/02/28 06:04:40;;;;;;;8.68;5.40;;;-1.50;99.90;;;;;;5020480;28;20021;-73
2023/02/28 06:07:06;;;;;;;9.48;6.15;;;-1.50;99.90;;;;;;5024968;28;20090;-73
2023/02/28 06:09:32;;;;;;;11.73;6.00;;;-1.50;99.90;;;;;;5016497;28;20597;-73
2023/02/28 06:12:05;;;;;;;13.18;5.57;;;-1.40;99.90;;;;;;5022748;28;20104;-71
2023/02/28 06:14:31;;;;;;;11.68;6.32;;;-1.50;99.90;;;;;;5012507;28;20053;-74
2023/02/28 06:16:58;;;;;;;10.65;6.20;;;-1.50;99.90;;;;;;5020547;28;20033;-70
2023/02/28 06:19:27;;;;;;;11.10;5.75;;;-1.50;99.90;;;;;;5023428;28;20034;-74
2023/02/28 06:21:53;;;;;;;11.88;6.32;;;-1.40;99.90;;;;;;5012457;28;20030;-74
2023/02/28 06:24:20;;;;;;;9.23;6.07;;;-1.40;99.90;;;;;;5011464;28;20025;-74
2023/02/28 06:26:46;;;;;;;10.65;6.35;;;-1.30;99.90;;;;;;5023332;28;20033;-72
2023/02/28 06:29:16;;;;;;;9.55;6.32;;;-1.40;99.90;;;;;;5010637;28;20038;-72
2023/02/28 06:31:41;;;;;;;11.60;6.13;;;-1.40;99.90;;;;;;5012435;28;20041;-74
2023/02/28 06:34:07;;;;;;;11.15;6.28;;;-1.40;99.90;;;;;;5011010;28;20038;-73
2023/02/28 06:36:32;;;;;;;10.15;5.85;;;-1.30;99.90;;;;;;5012403;28;20042;-74
2023/02/28 06:38:58;;;;;;;11.60;6.43;;;-1.40;99.90;;;;;;5012048;28;20466;-74
2023/02/28 06:41:25;;;;;;;10.68;6.20;;;-1.40;99.90;;;;;;5011711;28;20084;-75
2023/02/28 06:43:52;;;;;;;10.60;6.78;;;-1.30;99.90;;;;;;5012113;28;20125;-74
2023/02/28 06:46:17;;;;;;;11.30;6.40;;;-1.30;99.90;;;;;;5009597;28;20044;-73
2023/02/28 06:48:44;;;;;;;12.70;6.70;;;-1.20;99.90;;;;;;5021191;28;20026;-73
2023/02/28 06:51:22;;;;;;;11.80;6.35;;;-1.20;99.90;;;;;;5014100;28;20061;-71
2023/02/28 06:53:48;;;;;;;12.70;6.13;;;-1.20;99.90;;;;;;5018594;28;20484;-73
2023/02/28 06:56:15;;;;;;;12.73;7.53;;;;;;;;;;4995921;28;20046;-74
2023/02/28 06:58:41;;;;;;;10.13;6.68;;;-1.00;99.90;;;;;;5015392;28;20030;-73
2023/02/28 07:01:08;;;;;;;9.65;5.53;;;-0.90;99.90;;;;;;5018393;28;20030;-73
2023/02/28 07:03:35;;;;;;;12.88;6.32;;;-1.00;99.90;;;;;;5019941;28;20059;-73
2023/02/28 07:06:02;;;;;;;14.27;7.30;;;-0.90;99.90;;;;;;5025578;28;20034;-72
2023/02/28 07:08:28;;;;;;;11.50;6.85;;;-0.90;99.90;;;;;;5025302;28;20026;-74
2023/02/28 07:10:57;;;;;;;13.68;6.80;;;-0.90;99.90;;;;;;5025815;28;20152;-74
2023/02/28 07:13:23;;;;;;;14.40;7.32;;;-0.90;99.90;;;;;;5018882;28;20026;-74
2023/02/28 07:15:58;;;;;;;14.43;7.05;;;-0.90;99.90;;;;;;4995975;28;20120;-74
2023/02/28 07:18:24;;;;;;;11.27;6.95;;;-0.90;99.90;;;;;;5013713;28;20030;-74
2023/02/28 07:20:50;;;;;;;12.60;7.20;;;-0.80;99.90;;;;;;5027033;28;20025;-73
2023/02/28 07:23:16;;;;;;;12.07;6.53;;;-0.80;99.90;;;;;;5015480;28;20040;-74
2023/02/28 07:25:41;;;;;;;15.10;7.18;;;-0.80;99.90;;;;;;5025827;28;20113;-75
2023/02/28 07:28:07;;;;;;;13.35;7.68;;;-0.80;99.90;;;;;;5027509;28;20045;-74
2023/02/28 07:30:33;;;;;;;13.02;7.30;;;-0.70;99.90;;;;;;5016308;28;20037;-74
2023/02/28 07:32:58;;;;;;;12.95;7.47;;;-0.80;99.90;;;;;;5030883;28;20033;-72
2023/02/28 07:35:24;;;;;;;15.75;7.32;;;-0.70;99.90;;;;;;5011087;28;20072;-73
2023/02/28 07:37:49;;;;;;;15.45;7.78;;;-0.60;99.90;;;;;;5022287;28;20030;-73
2023/02/28 07:40:17;;;;;;;15.70;8.40;;;-0.70;99.90;;;;;;5020587;28;20033;-75
2023/02/28 07:42:43;;;;;;;16.73;7.95;;;-0.60;99.90;;;;;;5011923;28;20425;-74
2023/02/28 07:45:11;;;;;;;16.30;7.68;;;-0.50;99.90;;;;;;5020727;28;20105;-74
2023/02/28 07:47:38;;;;;;;15.30;8.07;;;-0.50;99.90;;;;;;5012655;28;20034;-75
2023/02/28 07:50:06;;;;;;;13.05;7.38;;;-0.60;99.90;;;;;;5026293;28;20113;-74
2023/02/28 07:52:32;;;;;;;11.70;7.30;;;-0.60;99.90;;;;;;5010930;28;20028;-74
2023/02/28 07:54:57;;;;;;;13.52;7.32;;;-0.50;99.90;;;;;;5018816;28;20068;-72
2023/02/28 07:57:23;;;;;;;13.05;6.90;;;-0.50;99.90;;;;;;5013243;28;20065;-73
2023/02/28 07:59:49;;;;;;;13.30;8.02;;;-0.40;99.90;;;;;;5015655;28;20030;-72
2023/02/28 08:02:16;;;;;;;13.85;8.05;;;-0.40;99.90;;;;;;5023938;28;20029;-72
2023/02/28 08:04:42;;;;;;;16.45;8.55;;;-0.40;99.90;;;;;;5020461;28;20420;-74
2023/02/28 08:07:12;;;;;;;16.40;9.05;;;-0.40;99.90;;;;;;5010241;28;20387;-73
2023/02/28 08:09:38;;;;;;;;;;;-0.40;99.90;;;;;;5018015;28;20077;-75
2023/02/28 08:12:04;;;;;;;14.50;7.70;;;-0.40;99.90;;;;;;5010226;28;20307;-75
2023/02/28 08:14:30;;;;;;;11.18;7.63;;;-0.30;99.90;;;;;;5010098;28;20380;-74
2023/02/28 08:16:55;;;;;;;13.80;8.10;;;-0.30;99.90;;;;;;5018832;28;20029;-73
2023/02/28 08:19:21;;;;;;;16.60;8.32;;;-0.30;99.90;;;;;;5019632;28;20096;-73
2023/02/28 08:21:46;;;;;;;14.10;8.00;;;-0.30;99.90;;;;;;5017058;28;20025;-74
2023/02/28 08:24:12;;;;;;;13.75;8.10;;;-0.20;99.90;;;;;;4995771;28;20058;-74
2023/02/28 08:26:38;;;;;;;11.95;7.85;;;-0.20;99.90;;;;;;5021898;28;20090;-73
2023/02/28 08:29:03;;;;;;;14.02;7.45;;;-0.10;99.90;;;;;;5024566;28;20025;-73
2023/02/28 08:31:29;;;;;;;14.07;7.80;;;-0.10;99.90;;;;;;5015224;28;20026;-75
2023/02/28 08:33:58;;;;;;;16.63;8.23;;;-0.10;99.90;;;;;;5001654;28;20033;-75
2023/02/28 08:36:24;;;;;;;15.30;8.10;;;-0.10;99.90;;;;;;5025503;28;20513;-74
2023/02/28 08:38:51;;;;;;;17.15;8.48;;;;;;;;;;5016157;28;20128;-74
2023/02/28 08:41:17;;;;;;;13.95;8.23;;;;;;;;;;5014784;28;20588;-73
2023/02/28 08:43:43;;;;;;;14.25;8.68;;;;;;;;;;5020544;28;20033;-73
2023/02/28 08:46:11;;;;;;;14.02;7.38;;;;;;;;;;5027426;28;20025;-74
2023/02/28 08:48:37;;;;;;;12.90;8.35;;;;;;;;;;5018452;28;20025;-74
2023/02/28 08:51:09;;;;;;;14.25;7.90;;;;;;;;;;5023787;28;20017;-74
2023/02/28 08:53:35;;;;;;;17.40;8.45;;;0.50;99.90;;;;;;5022076;28;20026;-75
2023/02/28 08:56:04;;;;;;;14.57;8.45;;;0.50;99.90;;;;;;5015745;28;20096;-72
2023/02/28 08:58:30;;;;;;;13.48;8.60;;;0.50;99.90;;;;;;5021023;28;20049;-75
2023/02/28 09:00:56;;;;;;;12.70;8.13;;;0.40;99.90;;;;;;5025556;28;20804;-76
2023/02/28 09:03:23;;;;;;;19.05;8.82;;;0.40;99.90;;;;;;5014926;28;20069;-76
2023/02/28 09:05:57;;;;;;;14.55;8.48;;;0.40;99.90;;;;;;5015036;28;20125;-75
2023/02/28 09:08:24;;;;;;;17.02;8.68;;;0.50;99.90;;;;;;5023806;28;20037;-75
2023/02/28 09:10:50;;;;;;;13.10;8.10;;;0.60;99.90;;;;;;5014026;28;20057;-76
2023/02/28 09:13:17;;;;;;;13.25;8.23;;;0.70;99.90;;;;;;5013849;28;20022;-74
2023/02/28 09:15:42;;;;;;;13.93;8.77;;;0.70;99.90;;;;;;5018886;28;20053;-76
2023/02/28 09:18:08;;;;;;;15.32;8.00;;;0.70;99.90;;;;;;5015965;28;20415;-75
2023/02/28 09:20:37;;;;;;;15.25;8.20;;;0.80;99.90;;;;;;5028803;28;20113;-77
2023/02/28 09:23:03;;;;;;;17.50;8.47;;;0.80;99.90;;;;;;5013474;28;20014;-75
2023/02/28 09:25:28;;;;;;;14.65;8.48;;;0.80;99.90;;;;;;5028447;28;20556;-76
2023/02/28 09:27:54;;;;;;;16.25;8.25;;;0.90;99.90;;;;;;5037723;28;20034;-76
2023/02/28 09:30:19;;;;;;;17.05;8.57;;;1.30;99.90;;;;;;5018735;28;20049;-76
2023/02/28 09:32:51;;;;;;;13.60;8.60;;;1.10;99.90;;;;;;5006795;28;20029;-75
2023/02/28 09:35:18;;;;;;;14.85;8.75;;;1.20;99.90;;;;;;5021714;28;20388;-75
2023/02/28 09:37:43;;;;;;;12.35;8.00;;;1.20;99.90;;;;;;5014339;28;20518;-74
2023/02/28 09:40:11;;;;;;;15.13;8.75;;;1.20;99.90;;;;;;5011919;28;20041;-76
2023/02/28 09:42:38;;;;;;;14.45;8.95;;;1.30;99.90;;;;;;5025449;28;20124;-76
2023/02/28 09:45:18;;;;;;;13.52;8.68;;;1.30;99.90;;;;;;5019445;28;20029;-76
2023/02/28 09:47:46;;;;;;;15.90;8.70;;;1.40;99.90;;;;;;5019373;28;20041;-76
2023/02/28 09:50:28;;;;;;;16.50;9.23;;;1.50;99.90;;;;;;5024159;28;20368;-75
2023/02/28 09:52:55;;;;;;;21.45;9.40;;;1.40;99.90;;;;;;5027303;28;20049;-75
2023/02/28 09:55:33;;;;;;;14.07;8.40;;;1.50;99.90;;;;;;5014401;28;20049;-75
2023/02/28 09:58:01;;;;;;;15.05;8.30;;;1.50;99.90;;;;;;5019580;28;20026;-72
2023/02/28 10:00:37;;;;;;;14.18;8.50;;;1.60;99.90;;;;;;5011632;28;20034;-75
2023/02/28 10:03:30;;;;;;;22.35;8.15;;;1.60;99.90;;;;;;5029205;28;20033;-74
2023/02/28 10:06:16;;;;;;;14.70;8.57;;;1.70;99.90;;;;;;5019311;28;20038;-75
2023/02/28 10:08:55;;;;;;;16.75;8.88;;;1.80;99.90;;;;;;5018382;28;20433;-74
2023/02/28 10:11:23;;;;;;;15.30;8.97;;;1.80;99.90;;;;;;5023198;28;20037;-73
2023/02/28 10:14:02;;;;;;;16.10;8.63;;;;;;;;;;5012977;28;20584;-75
2023/02/28 10:16:51;;;;;;;14.23;8.77;;;2.10;99.90;;;;;;5015476;28;20364;-76
2023/02/28 10:19:32;;;;;;;13.43;8.33;;;2.10;99.90;;;;;;5021112;28;20514;-77
2023/02/28 10:22:20;;;;;;;13.43;8.60;;;2.20;99.90;;;;;;5012058;28;20128;-72
2023/02/28 10:24:49;;;;;;;17.08;9.20;;;2.20;99.90;;;;;;5024831;28;20065;-76
2023/02/28 10:27:21;;;;;;;13.50;8.13;;;2.30;99.90;;;;;;5015487;28;20455;-74
2023/02/28 10:29:51;;;;;;;16.27;9.40;;;2.30;99.90;;;;;;5027626;28;20025;-74
2023/02/28 10:32:20;;;;;;;14.07;8.38;;;2.50;99.90;;;;;;5014711;28;20026;-76
2023/02/28 10:35:09;;;;;;;17.23;8.68;;;2.70;99.90;;;;;;5015059;28;20120;-75
2023/02/28 10:37:38;;;;;;;15.93;8.45;;;2.90;99.90;;;;;;5015796;28;20091;-75
2023/02/28 10:40:06;;;;;;;18.65;9.05;;;2.90;99.90;;;;;;5024714;28;20084;-74
2023/02/28 10:42:32;;;;;;;14.85;8.40;;;3.00;99.90;;;;;;5012365;28;20026;-75
2023/02/28 10:45:16;;;;;;;12.52;8.52;;;2.90;99.90;;;;;;5017783;28;20486;-72
2023/02/28 10:47:57;;;;;;;13.30;8.40;;;2.90;99.90;;;;;;5023901;28;20038;-76
2023/02/28 10:50:37;;;;;;;13.57;8.38;;;2.90;99.90;;;;;;5021720;28;20030;-75
2023/02/28 10:53:21;;;;;;;;;;;3.00;99.90;;;;;;5017146;28;20017;-76
2023/02/28 10:55:57;;;;;;;11.77;8.30;;;3.00;99.90;;;;;;5011727;28;19928;-75
2023/02/28 10:58:26;;;;;;;15.88;8.60;;;3.00;99.90;;;;;;5015651;28;20129;-75
2023/02/28 11:00:52;;;;;;;14.35;8.68;;;3.10;99.90;;;;;;5018442;28;20466;-75
2023/02/28 11:03:38;;;;;;;13.65;7.88;;;3.00;99.90;;;;;;5016192;28;20026;-75
2023/02/28 11:06:07;;;;;;;19.98;9.45;;;2.80;99.90;;;;;;5027324;28;20056;-76
2023/02/28 11:08:34;;;;;;;13.38;9.00;;;2.60;99.90;;;;;;5029565;28;20036;-76
2023/02/28 11:11:05;;;;;;;14.25;9.50;;;2.60;99.90;;;;;;5020604;28;20081;-71
2023/02/28 11:13:37;;;;;;;15.85;9.13;;;2.70;99.90;;;;;;5014312;28;20037;-74
2023/02/28 11:16:07;;;;;;;13.40;9.20;;;2.80;99.90;;;;;;5010987;28;20514;-74
2023/02/28 11:18:35;;;;;;;15.90;9.55;;;3.00;99.90;;;;;;5015135;28;20141;-76
2023/02/28 11:21:02;;;;;;;13.20;8.60;;;3.10;99.90;;;;;;5023651;28;20141;-72
2023/02/28 11:23:31;;;;;;;14.40;8.98;;;3.30;99.90;;;;;;5011131;28;20084;-74
2023/02/28 11:26:00;;;;;;;11.85;8.18;;;3.40;99.90;;;;;;5017603;28;20028;-73
2023/02/28 11:28:34;;;;;;;16.65;9.55;;;3.40;99.90;;;;;;5017903;28;20108;-75
2023/02/28 11:31:11;;;;;;;15.07;8.65;;;3.50;99.90;;;;;;5029917;28;20021;-72
2023/02/28 11:33:54;;;;;;;14.02;8.68;;;3.50;99.70;;;;;;5024496;28;20371;-75
2023/02/28 11:36:26;;;;;;;14.95;9.30;;;3.50;99.90;;;;;;5010361;28;20109;-75
2023/02/28 11:39:01;;;;;;;16.58;8.95;;;3.50;99.90;;;;;;5012103;28;20037;-75
2023/02/28 11:41:39;;;;;;;14.73;8.65;;;3.70;99.90;;;;;;5011003;28;20104;-75
2023/02/28 11:44:20;;;;;;;14.52;9.00;;;3.80;99.70;;;;;;5010397;28;20038;-75
2023/02/28 11:46:53;;;;;;;15.63;9.32;;;3.60;99.40;;;;;;4994126;28;20080;-74
2023/02/28 11:49:24;;;;;;;15.85;9.32;;;3.40;99.60;;;;;;5023672;28;20041;-73
2023/02/28 11:51:57;;;;;;;14.52;8.60;;;3.40;99.90;;;;;;5024564;28;20433;-74
2023/02/28 11:54:50;;;;;;;15.15;9.55;;;3.50;99.90;;;;;;5017766;28;20108;-75
2023/02/28 11:57:52;;;;;;;13.40;8.25;;;3.50;99.90;;;;;;5029918;28;20096;-75
2023/02/28 12:00:29;;;;;;;12.55;8.55;;;3.60;99.40;;;;;;5002894;28;20057;-75
2023/02/28 12:03:37;;;;;;;15.55;9.82;;;3.50;99.60;;;;;;5015468;28;20030;-74
2023/02/28 12:06:17;;;;;;;12.43;8.40;;;3.40;99.40;;;;;;4953056;28;20091;-73
2023/02/28 12:08:43;;;;;;;;;;;3.30;99.90;;;;;;5012962;28;20379;-73
2023/02/28 12:11:34;;;;;;;14.45;8.38;;;3.40;99.80;;;;;;5023200;28;19912;-73
2023/02/28 12:14:00;;;;;;;13.38;8.82;;;3.50;99.90;;;;;;5002732;28;20410;-73
2023/02/28 12:16:36;;;;;;;12.57;8.98;;;3.90;99.30;;;;;;5034292;28;20025;-73
2023/02/28 12:19:11;;;;;;;12.85;7.90;;;4.40;97.80;;;;;;5033679;28;20034;-73
2023/02/28 12:21:45;;;;;;;13.15;8.10;;;4.50;98.00;;;;;;5034472;28;20029;-77
2023/02/28 12:24:31;;;;;;;13.80;8.45;;;4.60;97.70;;;;;;5033259;28;20086;-75
2023/02/28 12:27:02;;;;;;;12.80;8.60;;;4.70;97.00;;;;;;5018269;28;20038;-72
2023/02/28 12:29:37;;;;;;;12.50;8.85;;;4.80;97.00;;;;;;5014546;28;20105;-74
2023/02/28 12:32:26;;;;;;;10.93;7.80;;;4.80;96.50;;;;;;5021306;28;20121;-75
2023/02/28 12:35:04;;;;;;;12.35;8.38;;;4.90;96.90;;;;;;5034081;28;20057;-77
2023/02/28 12:37:38;;;;;;;12.82;8.25;;;5.40;95.70;;;;;;5034589;28;20032;-77
2023/02/28 12:40:12;;;;;;;10.35;7.45;;;5.90;99.90;;;;;;5033208;28;20029;-78
2023/02/28 12:42:49;;;;;;;11.63;8.52;;;6.10;93.90;;;;;;5009600;28;20034;-78
2023/02/28 12:45:34;;;;;;;11.65;8.35;;;6.20;93.10;;;;;;5022224;28;20553;-74
2023/02/28 12:48:05;;;;;;;10.63;7.50;;;6.30;92.70;;;;;;5016421;28;20037;-72
2023/02/28 12:50:32;;;;;;;12.07;8.07;;;6.50;92.20;;;;;;5021980;28;20045;-74
2023/02/28 12:53:11;;;;;;;18.70;8.63;;;6.60;91.90;;;;;;5016344;28;20033;-72
2023/02/28 12:55:55;;;;;;;11.70;8.25;;;6.80;92.00;;;;;;5018510;28;20037;-73
2023/02/28 12:58:30;;;;;;;9.90;7.40;;;7.30;94.30;;;;;;5016244;28;20461;-75
2023/02/28 13:01:08;;;;;;;13.18;8.77;;;7.50;90.70;;;;;;5021926;28;20030;-73
2023/02/28 13:03:37;;;;;;;11.93;8.07;;;7.80;88.30;;;;;;5031195;28;20077;-74
2023/02/28 13:06:15;;;;;;;11.35;8.50;;;8.00;86.80;;;;;;5012829;28;20029;-73